Startpagina
METAR-TAF:

METAR-TAF

Vliegvelden :

Luchthaven Diori Hamani

Niamey, Niger

breedte: 13-29N, lengte: 002-10E, hoogte: 223 m

Actueel weer

Dit bericht is 21 minuten geleden gemaakt, om 18:00 UTC
Wind 9 kt uit het oostnoordoosten
Temperatuur 31°C
Vochtigheid 6%
Druk 1013 hPa
Zicht: 2800 m
verspreid stof

METAR: DRRN 231800Z 07009KT 2800 DU NSC 31/M11 Q1013 NOSIG

Tijdstip: 19:21 (18:21 UTC)

Verwachting

Dit bericht is 1 uur en het 21 minuten geleden gemaakt, om 17:00 UTC
Verwachting geldig van 23 om 18 UTC tot 24 om 24 UTC
Wind 10 kt uit het oosten
Zicht: 2500 m
verspreid stof
Wijzigt naar
van 23 om 18 UTC tot 23 om 20 UTC
Zicht: 3500 m
Wijzigt naar
van 24 om 02 UTC tot 24 om 04 UTC
Zicht: 2000 m
Tijdelijke
van 24 om 06 UTC tot 24 om 12 UTC
Wind 20 kt uit het oosten
Zicht: 0600 m
Stuifstof

TAF: DRRN 231700Z 2318/2424 08010KT 2500 DU NSC BECMG 2318/2320 3500 BECMG 2402/2404 2000 TEMPO 2406/2412 10020KT 0600 BLDU

Waarnemingen en weersverwachtingen van meer dan 4000 vliegvelden (METAR en TAF).

De beschikbare stations zijn de gele en rode punten op de kaart.

Ga met uw muis naar het station om de naam te zien.

Klik dan om waarnemingen en weersverwachtingen te zien.

kaart wijzigen: klik op de groene knoppen met een zwart kruis om in te zoomen, op de groene knop met een streepje om uit te zoomen of op de groene pijlen voor aangrenzende kaarten.


METAR-TAF: